createdAt,value
2018-09-10T00:00:10.456Z,0
2018-09-10T00:01:18.566Z,0
2018-09-10T00:02:26.626Z,0
2018-09-10T00:03:34.652Z,0
2018-09-10T00:04:42.680Z,0
2018-09-10T00:05:50.774Z,0
2018-09-10T00:06:59.043Z,0
2018-09-10T00:08:07.391Z,0
2018-09-10T00:09:15.165Z,0
2018-09-10T00:10:23.199Z,0
2018-09-10T00:11:31.296Z,0
2018-09-10T00:12:39.361Z,0
2018-09-10T00:13:47.426Z,0
2018-09-10T00:14:55.486Z,0
2018-09-10T00:16:03.551Z,0
2018-09-10T00:17:11.628Z,0
2018-09-10T00:18:19.676Z,0
2018-09-10T00:19:27.747Z,0
2018-09-10T00:20:35.789Z,0
2018-09-10T00:21:43.877Z,0
2018-09-10T00:22:51.920Z,0
2018-09-10T00:23:59.992Z,0
2018-09-10T00:25:08.057Z,0
2018-09-10T00:26:16.380Z,0
2018-09-10T00:27:24.395Z,0
2018-09-10T00:28:32.429Z,0
2018-09-10T00:29:40.544Z,0
2018-09-10T00:30:48.590Z,0
2018-09-10T00:31:56.622Z,0
2018-09-10T00:33:04.698Z,0
2018-09-10T00:34:13.058Z,0
2018-09-10T00:35:20.925Z,0
2018-09-10T00:36:28.896Z,0
2018-09-10T00:37:36.942Z,0
2018-09-10T00:38:45.044Z,0
2018-09-10T00:39:53.058Z,0
2018-09-10T00:41:01.132Z,0
2018-09-10T00:42:09.202Z,0
2018-09-10T00:43:17.264Z,0
2018-09-10T00:44:25.349Z,0
2018-09-10T00:45:33.416Z,0
2018-09-10T00:46:41.433Z,0
2018-09-10T00:47:49.512Z,0
2018-09-10T00:48:57.580Z,0
2018-09-10T00:50:05.638Z,0
2018-09-10T00:51:13.695Z,0
2018-09-10T00:52:21.770Z,0
2018-09-10T00:53:29.828Z,0
2018-09-10T00:54:37.889Z,0
2018-09-10T00:55:45.958Z,0
2018-09-10T00:56:54.043Z,0
2018-09-10T00:58:02.073Z,0
2018-09-10T00:59:10.144Z,0
2018-09-10T01:00:18.248Z,0
2018-09-10T01:01:26.261Z,0
2018-09-10T01:02:34.323Z,0
2018-09-10T01:03:42.641Z,0
2018-09-10T01:04:50.448Z,0
2018-09-10T01:05:58.780Z,0
2018-09-10T01:07:06.582Z,0
2018-09-10T01:08:17.660Z,0
2018-09-10T01:09:25.926Z,0
2018-09-10T01:10:33.990Z,0
2018-09-10T01:11:42.054Z,0
2018-09-10T01:12:50.107Z,0
2018-09-10T01:13:58.177Z,0
2018-09-10T01:15:06.329Z,0
2018-09-10T01:16:15.518Z,0
2018-09-10T01:17:24.569Z,0
2018-09-10T01:18:31.622Z,0
2018-09-10T01:19:39.692Z,0
2018-09-10T01:20:47.751Z,0
2018-09-10T01:21:55.821Z,0
2018-09-10T01:23:04.084Z,0
2018-09-10T01:24:12.137Z,0
2018-09-10T01:25:20.470Z,0
2018-09-10T01:26:28.265Z,0
2018-09-10T01:27:36.331Z,0
2018-09-10T01:28:44.392Z,0
2018-09-10T01:29:52.437Z,0
2018-09-10T01:31:00.718Z,0
2018-09-10T01:32:08.862Z,0
2018-09-10T01:33:16.850Z,0
2018-09-10T01:34:24.899Z,0
2018-09-10T01:35:32.938Z,0
2018-09-10T01:36:41.034Z,0
2018-09-10T01:37:49.113Z,0
2018-09-10T01:38:57.152Z,0
2018-09-10T01:40:05.480Z,0
2018-09-10T01:41:13.479Z,0
2018-09-10T01:42:21.547Z,0
2018-09-10T01:43:29.610Z,0
2018-09-10T01:44:37.770Z,0
2018-09-10T01:45:45.720Z,0
2018-09-10T01:46:53.790Z,0
2018-09-10T01:48:01.850Z,0
2018-09-10T01:49:09.916Z,0
2018-09-10T01:50:17.982Z,0
2018-09-10T01:51:26.038Z,0
2018-09-10T01:52:34.202Z,0
2018-09-10T01:53:42.166Z,0
2018-09-10T01:54:50.233Z,0
2018-09-10T01:55:58.286Z,0
2018-09-10T01:57:06.454Z,0
2018-09-10T01:58:14.425Z,0
2018-09-10T01:59:23.075Z,0
2018-09-10T02:00:31.151Z,0
2018-09-10T02:01:39.210Z,0
2018-09-10T02:02:47.264Z,0
2018-09-10T02:03:55.338Z,0
2018-09-10T02:05:03.398Z,0
2018-09-10T02:06:11.448Z,0
2018-09-10T02:07:19.529Z,0
2018-09-10T02:08:27.851Z,0
2018-09-10T02:09:35.648Z,0
2018-09-10T02:10:43.710Z,0
2018-09-10T02:11:51.787Z,0
2018-09-10T02:12:59.831Z,0
2018-09-10T02:14:07.950Z,0
2018-09-10T02:15:15.964Z,0
2018-09-10T02:16:24.019Z,0
2018-09-10T02:17:32.096Z,0
2018-09-10T02:18:40.161Z,0
2018-09-10T02:19:48.219Z,0
2018-09-10T02:20:56.276Z,0
2018-09-10T02:22:04.538Z,0
2018-09-10T02:23:12.931Z,0
2018-09-10T02:24:20.863Z,0
2018-09-10T02:25:28.930Z,0
2018-09-10T02:26:36.978Z,0
2018-09-10T02:27:45.119Z,0
2018-09-10T02:28:53.080Z,0
2018-09-10T02:30:01.183Z,0
2018-09-10T02:31:09.237Z,0
2018-09-10T02:32:17.362Z,0
2018-09-10T02:33:25.366Z,0
2018-09-10T02:34:33.430Z,0
2018-09-10T02:35:41.495Z,0
2018-09-10T02:36:49.558Z,0
2018-09-10T02:37:57.619Z,0
2018-09-10T02:39:05.730Z,0
2018-09-10T02:40:13.766Z,0
2018-09-10T02:41:22.062Z,0
2018-09-10T02:42:29.871Z,0
2018-09-10T02:43:37.924Z,0
2018-09-10T02:44:45.989Z,0
2018-09-10T02:45:54.297Z,0
2018-09-10T02:47:02.107Z,0
2018-09-10T02:48:10.234Z,0
2018-09-10T02:49:18.235Z,0
2018-09-10T02:50:26.391Z,0
2018-09-10T02:51:34.359Z,0
2018-09-10T02:52:42.423Z,0
2018-09-10T02:53:50.479Z,0
2018-09-10T02:54:58.581Z,0
2018-09-10T02:56:06.665Z,0
2018-09-10T02:57:14.698Z,0
2018-09-10T02:58:22.715Z,0
2018-09-10T02:59:30.800Z,0
2018-09-10T03:00:38.865Z,0
2018-09-10T03:01:46.962Z,0
2018-09-10T03:02:55.080Z,0
2018-09-10T03:04:03.282Z,0
2018-09-10T03:05:11.123Z,0
2018-09-10T03:06:19.182Z,0
2018-09-10T03:07:27.487Z,0
2018-09-10T03:08:35.497Z,0
2018-09-10T03:09:43.567Z,0
2018-09-10T03:10:51.633Z,0
2018-09-10T03:11:59.689Z,0
2018-09-10T03:13:07.739Z,0
2018-09-10T03:14:15.811Z,0
2018-09-10T03:15:23.877Z,0
2018-09-10T03:16:31.937Z,0
2018-09-10T03:17:39.991Z,0
2018-09-10T03:18:48.065Z,0
2018-09-10T03:19:56.221Z,0
2018-09-10T03:21:04.183Z,0
2018-09-10T03:22:12.294Z,0
2018-09-10T03:23:20.615Z,0
2018-09-10T03:24:28.426Z,0
2018-09-10T03:25:36.553Z,0
2018-09-10T03:26:44.504Z,0
2018-09-10T03:27:52.633Z,0
2018-09-10T03:29:00.627Z,0
2018-09-10T03:30:08.694Z,0
2018-09-10T03:31:16.756Z,0
2018-09-10T03:32:24.813Z,0
2018-09-10T03:33:32.932Z,0
2018-09-10T03:34:41.026Z,0
2018-09-10T03:35:48.999Z,0
2018-09-10T03:36:57.064Z,0
2018-09-10T03:38:05.133Z,0
2018-09-10T03:39:13.159Z,0
2018-09-10T03:40:21.224Z,0
2018-09-10T03:41:29.309Z,0
2018-09-10T03:42:37.382Z,0
2018-09-10T03:43:45.811Z,0
2018-09-10T03:44:53.488Z,0
2018-09-10T03:46:01.560Z,0
2018-09-10T03:47:09.636Z,0
2018-09-10T03:48:17.681Z,0
2018-09-10T03:49:25.746Z,0
2018-09-10T03:50:33.811Z,0
2018-09-10T03:51:41.886Z,0
2018-09-10T03:52:49.946Z,0
2018-09-10T03:53:58.007Z,0
2018-09-10T03:55:06.050Z,0
2018-09-10T03:56:14.127Z,0
2018-09-10T03:57:22.234Z,0
2018-09-10T03:58:30.244Z,0
2018-09-10T03:59:38.773Z,0
2018-09-10T04:00:46.576Z,0
2018-09-10T04:01:54.632Z,0
2018-09-10T04:03:02.669Z,0
2018-09-10T04:04:10.773Z,0
2018-09-10T04:05:19.143Z,0
2018-09-10T04:06:26.881Z,0
2018-09-10T04:07:34.952Z,0
2018-09-10T04:08:42.980Z,0
2018-09-10T04:09:51.673Z,0
2018-09-10T04:10:59.220Z,0
2018-09-10T04:12:07.189Z,0
2018-09-10T04:13:15.620Z,0
2018-09-10T04:14:23.775Z,0
2018-09-10T04:15:31.587Z,0
2018-09-10T04:16:39.641Z,0
2018-09-10T04:17:48.182Z,0
2018-09-10T04:18:55.986Z,0
2018-09-10T04:20:04.305Z,0
2018-09-10T04:21:12.105Z,0
2018-09-10T04:22:20.167Z,0
2018-09-10T04:23:28.233Z,0
2018-09-10T04:24:36.601Z,0
2018-09-10T04:25:44.351Z,0
2018-09-10T04:26:52.408Z,0
2018-09-10T04:28:00.855Z,0
2018-09-10T04:29:08.636Z,0
2018-09-10T04:30:16.726Z,0
2018-09-10T04:31:24.667Z,0
2018-09-10T04:32:32.701Z,0
2018-09-10T04:33:40.793Z,0
2018-09-10T04:34:48.837Z,0
2018-09-10T04:35:56.921Z,0
2018-09-10T04:37:04.971Z,0
2018-09-10T04:38:13.016Z,0
2018-09-10T04:39:21.089Z,0
2018-09-10T04:40:29.158Z,0
2018-09-10T04:41:37.228Z,0
2018-09-10T04:42:45.280Z,0
2018-09-10T04:43:53.328Z,0
2018-09-10T04:45:01.421Z,0
2018-09-10T04:46:11.568Z,0
2018-09-10T04:47:17.645Z,0
2018-09-10T04:48:25.794Z,5
2018-09-10T04:49:33.879Z,5
2018-09-10T04:50:41.917Z,5
2018-09-10T04:51:49.988Z,5
2018-09-10T04:52:58.050Z,5
2018-09-10T04:54:06.104Z,5
2018-09-10T04:55:14.173Z,10
2018-09-10T04:56:22.331Z,10
2018-09-10T04:57:30.309Z,10
2018-09-10T04:58:38.359Z,10
2018-09-10T04:59:46.527Z,10
2018-09-10T05:00:54.500Z,15
2018-09-10T05:02:06.430Z,15
2018-09-10T05:03:10.616Z,15
2018-09-10T05:04:19.990Z,20
2018-09-10T05:05:26.941Z,20
2018-09-10T05:06:35.200Z,20
2018-09-10T05:07:43.646Z,20
2018-09-10T05:08:51.611Z,25
2018-09-10T05:09:59.258Z,25
2018-09-10T05:11:07.255Z,25
2018-09-10T05:12:15.734Z,30
2018-09-10T05:13:23.376Z,30
2018-09-10T05:14:31.416Z,30
2018-09-10T05:15:39.498Z,30
2018-09-10T05:16:47.572Z,35
2018-09-10T05:17:55.653Z,35
2018-09-10T05:19:03.894Z,35
2018-09-10T05:20:11.949Z,40
2018-09-10T05:21:20.000Z,40
2018-09-10T05:22:28.194Z,40
2018-09-10T05:23:36.135Z,40
2018-09-10T05:24:44.200Z,45
2018-09-10T05:25:52.283Z,45
2018-09-10T05:27:00.338Z,45
2018-09-10T05:28:08.465Z,45
2018-09-10T05:29:16.459Z,50
2018-09-10T05:30:24.513Z,50
2018-09-10T05:31:32.560Z,50
2018-09-10T05:32:40.637Z,55
2018-09-10T05:33:48.706Z,55
2018-09-10T05:34:56.766Z,55
2018-09-10T05:36:04.824Z,60
2018-09-10T05:37:12.847Z,60
2018-09-10T05:38:20.954Z,60
2018-09-10T05:39:29.009Z,65
2018-09-10T05:40:37.065Z,65
2018-09-10T05:41:45.466Z,65
2018-09-10T05:42:53.383Z,65
2018-09-10T05:44:01.464Z,70
2018-09-10T05:45:09.535Z,70
2018-09-10T05:46:17.586Z,70
2018-09-10T05:47:25.659Z,70
2018-09-10T05:48:33.706Z,75
2018-09-10T05:49:41.769Z,75
2018-09-10T05:50:49.836Z,75
2018-09-10T05:51:57.906Z,75
2018-09-10T05:53:05.967Z,80
2018-09-10T05:54:14.027Z,80
2018-09-10T05:55:22.122Z,80
2018-09-10T05:56:30.151Z,80
2018-09-10T05:57:38.260Z,80
2018-09-10T05:58:46.290Z,85
2018-09-10T05:59:54.352Z,85
2018-09-10T06:01:02.435Z,85
2018-09-10T06:02:10.512Z,85
2018-09-10T06:03:18.696Z,85
2018-09-10T06:04:26.598Z,90
2018-09-10T06:05:34.653Z,90
2018-09-10T06:06:42.689Z,90
2018-09-10T06:07:50.781Z,90
2018-09-10T06:08:58.832Z,90
2018-09-10T06:10:06.933Z,90
2018-09-10T06:11:14.959Z,95
2018-09-10T06:12:23.008Z,95
2018-09-10T06:13:31.097Z,95
2018-09-10T06:14:39.152Z,95
2018-09-10T06:15:47.216Z,100
2018-09-10T06:16:55.287Z,100
2018-09-10T06:18:03.320Z,100
2018-09-10T06:19:11.405Z,100
2018-09-10T06:20:19.482Z,105
2018-09-10T06:21:27.631Z,150
2018-09-10T06:22:35.597Z,140
2018-09-10T06:23:43.658Z,120
2018-09-10T06:24:51.728Z,125
2018-09-10T06:25:59.797Z,135
2018-09-10T06:27:07.942Z,130
2018-09-10T06:28:15.911Z,110
2018-09-10T06:29:23.976Z,110
2018-09-10T06:30:32.047Z,110
2018-09-10T06:31:40.194Z,110
2018-09-10T06:32:48.169Z,115
2018-09-10T06:33:57.306Z,115
2018-09-10T06:35:04.307Z,120
2018-09-10T06:36:12.400Z,110
2018-09-10T06:37:20.424Z,115
2018-09-10T06:38:28.495Z,120
2018-09-10T06:39:36.572Z,120
2018-09-10T06:40:44.613Z,115
2018-09-10T06:41:52.648Z,115
2018-09-10T06:43:01.042Z,115
2018-09-10T06:44:08.817Z,120
2018-09-10T06:45:16.880Z,125
2018-09-10T06:46:24.936Z,120
2018-09-10T06:47:32.984Z,125
2018-09-10T06:48:41.074Z,125
2018-09-10T06:49:49.174Z,135
2018-09-10T06:50:57.196Z,135
2018-09-10T06:52:05.362Z,145
2018-09-10T06:53:13.321Z,165
2018-09-10T06:54:21.401Z,145
2018-09-10T06:55:29.469Z,125
2018-09-10T06:56:37.735Z,135
2018-09-10T06:57:45.797Z,170
2018-09-10T06:58:53.859Z,195
2018-09-10T07:00:01.963Z,210
2018-09-10T07:01:10.244Z,170
2018-09-10T07:02:18.294Z,200
2018-09-10T07:03:26.363Z,265
2018-09-10T07:04:34.412Z,305
2018-09-10T07:05:42.505Z,305
2018-09-10T07:06:50.547Z,305
2018-09-10T07:07:58.702Z,295
2018-09-10T07:09:06.665Z,295
2018-09-10T07:10:14.741Z,300
2018-09-10T07:11:22.786Z,305
2018-09-10T07:12:31.079Z,305
2018-09-10T07:13:38.936Z,305
2018-09-10T07:14:52.838Z,300
2018-09-10T07:16:00.971Z,300
2018-09-10T07:17:09.009Z,300
2018-09-10T07:18:26.265Z,300
2018-09-10T07:19:29.751Z,305
2018-09-10T07:20:35.424Z,305
2018-09-10T07:21:43.488Z,305
2018-09-10T07:22:51.559Z,305
2018-09-10T07:23:59.925Z,310
2018-09-10T07:25:07.695Z,310
2018-09-10T07:26:15.772Z,310
2018-09-10T07:27:30.993Z,320
2018-09-10T07:28:36.819Z,330
2018-09-10T07:29:48.863Z,340
2018-09-10T07:30:54.517Z,345
2018-09-10T07:32:02.560Z,350
2018-09-10T07:33:13.255Z,370
2018-09-10T07:34:21.335Z,380
2018-09-10T07:35:29.415Z,390
2018-09-10T07:36:43.546Z,400
2018-09-10T07:37:51.626Z,405
2018-09-10T07:38:59.709Z,410
2018-09-10T07:40:07.803Z,425
2018-09-10T07:41:19.678Z,445
2018-09-10T07:42:28.320Z,450
2018-09-10T07:43:38.257Z,465
2018-09-10T07:44:48.524Z,465
2018-09-10T07:46:02.451Z,470
2018-09-10T07:47:10.544Z,475
2018-09-10T07:48:18.610Z,470
2018-09-10T07:49:26.691Z,470
2018-09-10T07:50:34.767Z,475
2018-09-10T07:51:42.810Z,480
2018-09-10T07:52:50.977Z,485
2018-09-10T07:54:00.023Z,490
2018-09-10T07:55:07.063Z,490
2018-09-10T07:56:15.149Z,490
2018-09-10T07:57:26.255Z,495
2018-09-10T07:58:31.318Z,495
2018-09-10T07:59:39.655Z,500
2018-09-10T08:00:47.504Z,495
2018-09-10T08:01:55.745Z,500
2018-09-10T08:03:03.871Z,500
2018-09-10T08:04:11.895Z,505
2018-09-10T08:05:19.968Z,505
2018-09-10T08:06:28.051Z,500
2018-09-10T08:07:36.127Z,500
2018-09-10T08:08:44.198Z,495
2018-09-10T08:09:52.264Z,490
2018-09-10T08:11:18.676Z,485
2018-09-10T08:12:11.046Z,475
2018-09-10T08:13:19.139Z,460
2018-09-10T08:14:27.215Z,440
2018-09-10T08:15:35.289Z,415
2018-09-10T08:16:43.342Z,360
2018-09-10T08:17:51.446Z,345
2018-09-10T08:18:59.514Z,325
2018-09-10T08:20:07.595Z,315
2018-09-10T08:22:39.146Z,290
2018-09-10T08:23:40.915Z,280
2018-09-10T08:24:49.018Z,285
2018-09-10T08:25:57.076Z,280
2018-09-10T08:27:05.154Z,275
2018-09-10T08:28:13.199Z,275
2018-09-10T08:29:21.294Z,270
2018-09-10T08:30:29.396Z,265
2018-09-10T08:31:37.456Z,265
2018-09-10T08:32:45.546Z,260
2018-09-10T08:33:54.651Z,255
2018-09-10T08:35:01.696Z,250
2018-09-10T08:36:10.154Z,240
2018-09-10T08:37:18.162Z,215
2018-09-10T08:38:25.920Z,190
2018-09-10T08:39:33.999Z,175
2018-09-10T08:40:42.087Z,160
2018-09-10T08:41:50.169Z,160
2018-09-10T08:42:58.297Z,160
2018-09-10T08:44:06.315Z,160
2018-09-10T08:45:14.387Z,160
2018-09-10T08:46:22.449Z,160
2018-09-10T08:47:30.903Z,160
2018-09-10T08:48:41.286Z,165
2018-09-10T08:49:49.576Z,165
2018-09-10T08:50:57.381Z,170
2018-09-10T08:52:05.465Z,180
2018-09-10T08:53:13.517Z,190
2018-09-10T08:54:21.794Z,200
2018-09-10T08:55:29.816Z,210
2018-09-10T08:56:37.747Z,225
2018-09-10T08:57:45.822Z,235
2018-09-10T08:58:53.908Z,245
2018-09-10T09:00:02.043Z,250
2018-09-10T09:01:10.059Z,260
2018-09-10T09:02:18.128Z,265
2018-09-10T09:03:26.207Z,265
2018-09-10T09:04:34.266Z,265
2018-09-10T09:05:42.342Z,270
2018-09-10T09:06:50.397Z,265
2018-09-10T09:07:58.518Z,240
2018-09-10T09:09:06.561Z,235
2018-09-10T09:10:14.632Z,255
2018-09-10T09:11:22.680Z,260
2018-09-10T09:12:30.963Z,265
2018-09-10T09:13:39.040Z,265
2018-09-10T09:14:47.124Z,250
2018-09-10T09:15:56.258Z,260
2018-09-10T09:17:03.237Z,280
2018-09-10T09:18:11.332Z,280
2018-09-10T09:19:19.412Z,285
2018-09-10T09:20:27.469Z,285
2018-09-10T09:21:35.540Z,285
2018-09-10T09:23:54.710Z,285
2018-09-10T09:25:09.958Z,275
2018-09-10T09:26:11.065Z,270
2018-09-10T09:27:19.139Z,255
2018-09-10T09:28:27.206Z,240
2018-09-10T09:29:35.316Z,220
2018-09-10T09:30:43.320Z,215
2018-09-10T09:31:51.680Z,205
2018-09-10T09:32:59.529Z,195
2018-09-10T09:34:07.558Z,190
2018-09-10T09:35:15.640Z,185
2018-09-10T09:36:23.769Z,180
2018-09-10T09:37:31.780Z,180
2018-09-10T09:38:39.851Z,185
2018-09-10T09:39:48.973Z,190
2018-09-10T09:40:56.040Z,190
2018-09-10T09:42:04.050Z,190
2018-09-10T09:43:13.961Z,190
2018-09-10T09:44:22.012Z,195
2018-09-10T09:45:30.065Z,200
2018-09-10T09:46:38.150Z,205
2018-09-10T09:47:46.211Z,210
2018-09-10T09:48:54.340Z,220
2018-09-10T09:50:02.350Z,225
2018-09-10T09:51:10.742Z,235
2018-09-10T09:52:18.517Z,245
2018-09-10T09:53:26.576Z,250
2018-09-10T09:54:34.640Z,260
2018-09-10T09:55:42.684Z,265
2018-09-10T09:56:50.797Z,270
2018-09-10T09:57:58.857Z,270
2018-09-10T09:59:06.932Z,265
2018-09-10T10:00:14.993Z,260
2018-09-10T10:01:23.082Z,260
2018-09-10T10:02:31.137Z,260
2018-09-10T10:03:39.407Z,260
2018-09-10T10:04:47.486Z,270
2018-09-10T10:05:55.551Z,280
2018-09-10T10:08:20.785Z,310
2018-09-10T10:09:28.846Z,325
2018-09-10T10:10:37.005Z,340
2018-09-10T10:11:45.153Z,345
2018-09-10T10:12:53.033Z,345
2018-09-10T10:14:01.126Z,340
2018-09-10T10:15:09.208Z,330
2018-09-10T10:16:17.325Z,310
2018-09-10T10:17:25.564Z,290
2018-09-10T10:18:33.811Z,270
2018-09-10T10:19:41.690Z,260
2018-09-10T10:20:49.775Z,245
2018-09-10T10:21:57.859Z,230
2018-09-10T10:23:05.905Z,225
2018-09-10T10:24:13.972Z,225
2018-09-10T10:25:22.260Z,230
2018-09-10T10:26:30.330Z,240
2018-09-10T10:27:38.413Z,250
2018-09-10T10:28:46.480Z,260
2018-09-10T10:29:54.556Z,265
2018-09-10T10:31:02.758Z,275
2018-09-10T10:32:10.702Z,280
2018-09-10T10:33:18.763Z,295
2018-09-10T10:34:26.831Z,305
2018-09-10T10:35:34.914Z,310
2018-09-10T10:36:43.046Z,310
2018-09-10T10:37:51.045Z,310
2018-09-10T10:38:59.116Z,310
2018-09-10T10:40:22.167Z,315
2018-09-10T10:41:16.727Z,325
2018-09-10T10:42:24.741Z,335
2018-09-10T10:43:32.786Z,350
2018-09-10T10:44:40.892Z,375
2018-09-10T10:45:50.022Z,390
2018-09-10T10:46:57.023Z,410
2018-09-10T10:48:05.198Z,420
2018-09-10T10:49:13.144Z,430
2018-09-10T10:50:21.252Z,450
2018-09-10T10:51:29.314Z,465
2018-09-10T10:52:37.661Z,485
2018-09-10T10:53:45.519Z,495
2018-09-10T10:54:53.776Z,500
2018-09-10T10:56:01.637Z,510
2018-09-10T10:57:09.672Z,510
2018-09-10T10:58:17.744Z,525
2018-09-10T10:59:25.807Z,535
2018-09-10T11:00:33.886Z,545
2018-09-10T11:01:41.984Z,550
2018-09-10T11:02:50.029Z,555
2018-09-10T11:03:58.106Z,560
2018-09-10T11:05:06.200Z,565
2018-09-10T11:06:14.267Z,565
2018-09-10T11:07:22.323Z,565
2018-09-10T11:08:30.404Z,560
2018-09-10T11:09:38.503Z,560
2018-09-10T11:10:46.562Z,555
2018-09-10T11:11:54.628Z,555
2018-09-10T11:13:02.657Z,555
2018-09-10T11:14:10.773Z,555
2018-09-10T11:15:18.849Z,545
2018-09-10T11:16:26.921Z,540
2018-09-10T11:17:34.996Z,535
2018-09-10T11:18:43.031Z,535
2018-09-10T11:19:51.135Z,530
2018-09-10T11:20:59.455Z,525
2018-09-10T11:22:07.296Z,520
2018-09-10T11:23:18.877Z,515
2018-09-10T11:24:27.056Z,505
2018-09-10T11:25:35.130Z,490
2018-09-10T11:26:43.177Z,480
2018-09-10T11:27:51.371Z,465
2018-09-10T11:29:00.247Z,450
2018-09-10T11:30:07.418Z,440
2018-09-10T11:31:15.502Z,425
2018-09-10T11:32:23.572Z,405
2018-09-10T11:33:31.638Z,390
2018-09-10T11:34:39.789Z,375
2018-09-10T11:35:47.788Z,345
2018-09-10T11:36:55.862Z,315
2018-09-10T11:38:04.297Z,295
2018-09-10T11:39:12.011Z,275
2018-09-10T11:40:20.088Z,255
2018-09-10T11:41:28.157Z,240
2018-09-10T11:42:36.226Z,220
2018-09-10T11:43:44.308Z,210
2018-09-10T11:44:52.371Z,210
2018-09-10T11:46:00.459Z,210
2018-09-10T11:47:08.515Z,205
2018-09-10T11:48:20.893Z,205
2018-09-10T11:49:28.896Z,200
2018-09-10T11:50:36.974Z,195
2018-09-10T11:51:45.242Z,190
2018-09-10T11:52:57.562Z,185
2018-09-10T11:54:06.302Z,190
2018-09-10T11:55:14.309Z,185
2018-09-10T11:56:22.379Z,185
2018-09-10T11:57:30.447Z,185
2018-09-10T11:58:38.789Z,185
2018-09-10T11:59:46.873Z,190
2018-09-10T12:00:54.661Z,185
2018-09-10T12:02:05.390Z,185
2018-09-10T12:03:13.421Z,190
2018-09-10T12:04:21.502Z,195
2018-09-10T12:05:29.679Z,195
2018-09-10T12:06:37.747Z,200
2018-09-10T12:07:45.729Z,205
2018-09-10T12:08:53.800Z,205
2018-09-10T12:10:01.856Z,210
2018-09-10T12:11:09.950Z,210
2018-09-10T12:12:18.139Z,210
2018-09-10T12:13:26.124Z,210
2018-09-10T12:14:34.165Z,210
2018-09-10T12:15:42.230Z,215
2018-09-10T12:16:50.337Z,215
2018-09-10T12:17:58.371Z,215
2018-09-10T12:19:06.466Z,220
2018-09-10T12:20:14.503Z,230
2018-09-10T12:21:22.578Z,240
2018-09-10T12:22:33.935Z,250
2018-09-10T12:23:38.762Z,255
2018-09-10T12:24:46.807Z,260
2018-09-10T12:25:54.889Z,270
2018-09-10T12:27:02.922Z,270
2018-09-10T12:28:11.047Z,270
2018-09-10T12:29:19.186Z,270
2018-09-10T12:30:27.248Z,275
2018-09-10T12:31:35.228Z,275
2018-09-10T12:32:44.345Z,280
2018-09-10T12:33:51.395Z,285
2018-09-10T12:34:59.462Z,285
2018-09-10T12:36:07.526Z,295
2018-09-10T12:37:15.648Z,310
2018-09-10T12:38:23.675Z,320
2018-09-10T12:39:31.785Z,345
2018-09-10T12:40:40.018Z,360
2018-09-10T12:41:48.094Z,380
2018-09-10T12:42:56.165Z,395
2018-09-10T12:44:04.245Z,410
2018-09-10T12:45:12.298Z,425
2018-09-10T12:46:20.385Z,420
2018-09-10T12:47:28.456Z,410
2018-09-10T12:48:42.767Z,415
2018-09-10T12:49:44.608Z,410
2018-09-10T12:50:52.873Z,400
2018-09-10T12:52:00.955Z,385
2018-09-10T12:53:09.005Z,360
2018-09-10T12:54:17.094Z,340
2018-09-10T12:55:25.185Z,315
2018-09-10T12:56:33.222Z,300
2018-09-10T12:57:41.322Z,295
2018-09-10T12:58:49.514Z,295
2018-09-10T12:59:57.477Z,300
2018-09-10T13:01:05.540Z,305
2018-09-10T13:02:13.877Z,310
2018-09-10T13:03:21.778Z,315
2018-09-10T13:04:29.764Z,325
2018-09-10T13:05:37.834Z,330
2018-09-10T13:06:45.904Z,335
2018-09-10T13:07:53.964Z,340
2018-09-10T13:09:02.157Z,340
2018-09-10T13:10:10.129Z,340
2018-09-10T13:11:18.720Z,340
2018-09-10T13:12:26.466Z,335
2018-09-10T13:13:34.542Z,330
2018-09-10T13:14:42.606Z,335
2018-09-10T13:15:50.692Z,330
2018-09-10T13:16:58.754Z,330
2018-09-10T13:18:06.846Z,330
2018-09-10T13:19:14.907Z,335
2018-09-10T13:20:22.951Z,320
2018-09-10T13:21:31.308Z,290
2018-09-10T13:22:39.139Z,280
2018-09-10T13:23:47.220Z,270
2018-09-10T13:24:55.314Z,260
2018-09-10T13:26:03.323Z,260
2018-09-10T13:27:11.685Z,255
2018-09-10T13:28:19.697Z,250
2018-09-10T13:29:27.781Z,245
2018-09-10T13:30:37.388Z,250
2018-09-10T13:31:44.277Z,250
2018-09-10T13:32:51.998Z,250
2018-09-10T13:34:00.063Z,260
2018-09-10T13:35:08.345Z,270
2018-09-10T13:36:16.413Z,260
2018-09-10T13:37:24.475Z,255
2018-09-10T13:38:32.729Z,245
2018-09-10T13:39:40.814Z,235
2018-09-10T13:40:48.908Z,235
2018-09-10T13:41:56.972Z,230
2018-09-10T13:43:05.116Z,235
2018-09-10T13:44:13.083Z,235
2018-09-10T13:45:21.194Z,240
2018-09-10T13:46:29.260Z,240
2018-09-10T13:47:37.608Z,240
2018-09-10T13:48:45.417Z,235
2018-09-10T13:49:53.491Z,240
2018-09-10T13:51:01.563Z,240
2018-09-10T13:52:09.877Z,240
2018-09-10T13:53:17.948Z,240
2018-09-10T13:54:25.805Z,240
2018-09-10T13:55:33.830Z,245
2018-09-10T13:56:41.913Z,245
2018-09-10T13:57:49.989Z,245
2018-09-10T13:58:58.061Z,245
2018-09-10T14:00:06.132Z,245
2018-09-10T14:01:14.775Z,240
2018-09-10T14:02:22.470Z,235
2018-09-10T14:03:30.549Z,240
2018-09-10T14:04:38.669Z,240
2018-09-10T14:05:46.698Z,240
2018-09-10T14:06:54.770Z,245
2018-09-10T14:08:02.820Z,240
2018-09-10T14:09:10.910Z,240
2018-09-10T14:10:18.979Z,235
2018-09-10T14:11:27.150Z,235
2018-09-10T14:12:35.136Z,225
2018-09-10T14:13:43.177Z,230
2018-09-10T14:14:51.530Z,220
2018-09-10T14:15:59.373Z,215
2018-09-10T14:17:07.433Z,215
2018-09-10T14:18:15.569Z,200
2018-09-10T14:19:23.863Z,195
2018-09-10T14:20:31.669Z,190
2018-09-10T14:21:39.768Z,195
2018-09-10T14:22:47.783Z,195
2018-09-10T14:23:55.853Z,195
2018-09-10T14:25:04.115Z,195
2018-09-10T14:26:12.251Z,200
2018-09-10T14:27:20.356Z,205
2018-09-10T14:28:28.336Z,210
2018-09-10T14:29:36.407Z,215
2018-09-10T14:30:44.587Z,215
2018-09-10T14:31:52.538Z,225
2018-09-10T14:33:00.635Z,225
2018-09-10T14:34:08.709Z,230
2018-09-10T14:35:16.768Z,230
2018-09-10T14:36:24.870Z,235
2018-09-10T14:37:32.892Z,225
2018-09-10T14:38:40.997Z,220
2018-09-10T14:39:49.066Z,215
2018-09-10T14:40:57.132Z,205
2018-09-10T14:42:05.197Z,205
2018-09-10T14:43:13.357Z,195
2018-09-10T14:44:21.405Z,190
2018-09-10T14:45:29.458Z,185
2018-09-10T14:46:37.526Z,180
2018-09-10T14:47:45.562Z,180
2018-09-10T14:48:53.653Z,180
2018-09-10T14:50:02.501Z,185
2018-09-10T14:51:10.389Z,185
2018-09-10T14:52:18.700Z,190
2018-09-10T14:53:26.535Z,195
2018-09-10T14:54:45.497Z,200
2018-09-10T14:55:42.637Z,200
2018-09-10T14:56:50.739Z,205
2018-09-10T14:57:58.840Z,200
2018-09-10T14:59:06.879Z,200
2018-09-10T15:00:14.961Z,200
2018-09-10T15:01:23.262Z,200
2018-09-10T15:02:31.105Z,200
2018-09-10T15:03:39.164Z,200
2018-09-10T15:04:47.277Z,200
2018-09-10T15:05:55.321Z,200
2018-09-10T15:07:03.413Z,200
2018-09-10T15:08:11.457Z,205
2018-09-10T15:09:19.538Z,210
2018-09-10T15:10:27.605Z,215
2018-09-10T15:11:36.192Z,215
2018-09-10T15:12:43.843Z,220
2018-09-10T15:13:51.912Z,220
2018-09-10T15:15:00.136Z,225
2018-09-10T15:16:07.968Z,225
2018-09-10T15:17:16.122Z,225
2018-09-10T15:18:24.275Z,225
2018-09-10T15:19:32.168Z,225
2018-09-10T15:20:40.451Z,225
2018-09-10T15:21:48.523Z,225
2018-09-10T15:22:56.585Z,225
2018-09-10T15:24:04.665Z,220
2018-09-10T15:25:12.710Z,220
2018-09-10T15:26:20.808Z,220
2018-09-10T15:27:28.942Z,215
2018-09-10T15:28:37.418Z,215
2018-09-10T15:29:45.030Z,215
2018-09-10T15:30:53.075Z,210
2018-09-10T15:32:01.167Z,200
2018-09-10T15:33:09.261Z,195
2018-09-10T15:34:17.331Z,190
2018-09-10T15:35:25.404Z,185
2018-09-10T15:36:33.451Z,180
2018-09-10T15:37:41.535Z,175
2018-09-10T15:38:49.617Z,175
2018-09-10T15:39:57.936Z,170
2018-09-10T15:41:05.750Z,170
2018-09-10T15:42:13.828Z,170
2018-09-10T15:43:21.894Z,160
2018-09-10T15:44:29.963Z,160
2018-09-10T15:45:38.083Z,155
2018-09-10T15:46:46.140Z,150
2018-09-10T15:47:54.216Z,150
2018-09-10T15:49:02.291Z,145
2018-09-10T15:50:10.306Z,145
2018-09-10T15:52:27.129Z,140
2018-09-10T15:53:36.543Z,140
2018-09-10T15:54:44.608Z,140
2018-09-10T15:55:52.716Z,135
2018-09-10T15:57:00.784Z,130
2018-09-10T15:58:09.569Z,125
2018-09-10T15:59:16.880Z,125
2018-09-10T16:00:24.952Z,120
2018-09-10T16:01:33.010Z,120
2018-09-10T16:02:41.318Z,120
2018-09-10T16:03:49.369Z,120
2018-09-10T16:04:57.448Z,125
2018-09-10T16:06:05.520Z,125